createdAt,value
2023-02-27T00:00:56.725Z,7.10
2023-02-27T00:03:23.847Z,7.17
2023-02-27T00:05:50.724Z,7.22
2023-02-27T00:08:17.635Z,7.18
2023-02-27T00:10:44.493Z,7.19
2023-02-27T00:13:11.347Z,7.32
2023-02-27T00:15:41.038Z,7.39
2023-02-27T00:18:08.398Z,7.37
2023-02-27T00:20:38.275Z,7.26
2023-02-27T00:23:06.139Z,7.33
2023-02-27T00:25:34.845Z,7.41
2023-02-27T00:28:01.801Z,7.38
2023-02-27T00:30:28.999Z,7.26
2023-02-27T00:32:56.127Z,7.29
2023-02-27T00:35:22.966Z,7.44
2023-02-27T00:37:50.008Z,7.46
2023-02-27T00:40:17.451Z,7.43
2023-02-27T00:42:46.291Z,7.41
2023-02-27T00:45:13.160Z,7.44
2023-02-27T00:47:40.076Z,7.51
2023-02-27T00:50:07.146Z,7.49
2023-02-27T00:52:34.642Z,7.45
2023-02-27T00:55:01.411Z,7.15
2023-02-27T00:57:28.597Z,7.16
2023-02-27T00:59:55.384Z,6.94
2023-02-27T01:02:22.326Z,6.78
2023-02-27T01:04:49.376Z,6.81
2023-02-27T01:07:16.421Z,6.84
2023-02-27T01:09:43.228Z,6.92
2023-02-27T01:12:10.659Z,6.99
2023-02-27T01:14:37.453Z,7.02
2023-02-27T01:17:04.510Z,7.09
2023-02-27T01:19:31.782Z,7.21
2023-02-27T01:21:58.608Z,7.21
2023-02-27T01:24:26.662Z,7.20
2023-02-27T01:26:53.525Z,7.24
2023-02-27T01:29:20.656Z,7.13
2023-02-27T01:31:49.171Z,7.18
2023-02-27T01:34:16.554Z,7.19
2023-02-27T01:36:43.495Z,6.88
2023-02-27T01:39:10.224Z,6.87
2023-02-27T01:41:37.093Z,6.98
2023-02-27T01:44:09.734Z,7.04
2023-02-27T01:46:38.354Z,6.93
2023-02-27T01:49:22.014Z,7.06
2023-02-27T01:51:50.627Z,7.17
2023-02-27T01:54:22.600Z,7.13
2023-02-27T01:56:50.585Z,7.00
2023-02-27T01:59:18.938Z,7.01
2023-02-27T02:01:46.549Z,6.91
2023-02-27T02:04:25.270Z,7.05
2023-02-27T02:07:04.788Z,7.15
2023-02-27T02:09:34.809Z,7.20
2023-02-27T02:12:02.224Z,7.18
2023-02-27T02:14:28.995Z,7.24
2023-02-27T02:17:07.877Z,7.30
2023-02-27T02:19:49.633Z,7.37
2023-02-27T02:22:54.773Z,7.48
2023-02-27T02:25:36.770Z,7.42
2023-02-27T02:28:25.313Z,7.41
2023-02-27T02:30:55.273Z,7.40
2023-02-27T02:33:22.056Z,7.44
2023-02-27T02:36:09.664Z,7.41
2023-02-27T02:38:39.375Z,7.35
2023-02-27T02:41:25.612Z,7.19
2023-02-27T02:44:03.826Z,7.21
2023-02-27T02:46:30.579Z,7.23
2023-02-27T02:49:11.694Z,7.20
2023-02-27T02:51:41.357Z,7.24
2023-02-27T02:54:20.710Z,7.25
2023-02-27T02:56:57.106Z,7.25
2023-02-27T02:59:36.800Z,6.95
2023-02-27T03:02:09.824Z,7.02
2023-02-27T03:05:07.448Z,6.86
2023-02-27T03:07:44.272Z,6.62
2023-02-27T03:10:21.250Z,6.63
2023-02-27T03:12:56.593Z,6.69
2023-02-27T03:15:30.219Z,6.66
2023-02-27T03:18:08.713Z,6.71
2023-02-27T03:20:44.162Z,6.80
2023-02-27T03:23:17.454Z,6.88
2023-02-27T03:25:46.471Z,6.73
2023-02-27T03:28:18.776Z,6.61
2023-02-27T03:30:53.541Z,6.49
2023-02-27T03:33:31.307Z,6.29
2023-02-27T03:36:19.401Z,6.25
2023-02-27T03:39:17.470Z,6.21
2023-02-27T03:41:54.370Z,6.14
2023-02-27T03:45:48.446Z,6.26
2023-02-27T03:48:15.454Z,6.44
2023-02-27T03:50:42.264Z,6.51
2023-02-27T03:53:21.027Z,6.60
2023-02-27T03:55:50.468Z,6.65
2023-02-27T03:58:17.369Z,6.66
2023-02-27T04:00:44.303Z,6.72
2023-02-27T04:03:11.826Z,6.77
2023-02-27T04:05:38.691Z,6.84
2023-02-27T04:08:32.654Z,6.91
2023-02-27T04:11:21.267Z,6.72
2023-02-27T04:13:59.995Z,6.60
2023-02-27T04:17:09.148Z,6.50
2023-02-27T04:20:02.026Z,6.63
2023-02-27T04:22:39.999Z,6.69
2023-02-27T04:25:24.109Z,6.73
2023-02-27T04:28:02.966Z,6.56
2023-02-27T04:31:01.503Z,6.61
2023-02-27T04:33:43.651Z,6.68
2023-02-27T04:36:25.075Z,6.74
2023-02-27T04:38:55.327Z,6.78
2023-02-27T04:41:28.910Z,6.82
2023-02-27T04:43:57.202Z,6.86
2023-02-27T04:46:28.056Z,6.92
2023-02-27T04:49:10.299Z,6.84
2023-02-27T04:51:44.459Z,6.68
2023-02-27T04:54:16.131Z,6.65
2023-02-27T04:56:51.509Z,6.63
2023-02-27T04:59:27.141Z,6.73
2023-02-27T05:02:02.077Z,6.76
2023-02-27T05:04:33.967Z,6.80
2023-02-27T05:07:03.181Z,6.81
2023-02-27T05:09:36.966Z,6.60
2023-02-27T05:12:23.012Z,6.57
2023-02-27T05:14:56.512Z,6.60
2023-02-27T05:17:31.909Z,6.67
2023-02-27T05:19:59.504Z,6.73
2023-02-27T05:22:58.866Z,6.74
2023-02-27T05:25:51.845Z,6.78
2023-02-27T05:28:24.573Z,6.77
2023-02-27T05:31:03.882Z,6.86
2023-02-27T05:33:41.700Z,6.83
2023-02-27T05:36:15.576Z,6.64
2023-02-27T05:38:48.582Z,6.68
2023-02-27T05:41:25.032Z,6.53
2023-02-27T05:43:57.143Z,6.48
2023-02-27T05:46:30.461Z,6.47
2023-02-27T05:49:12.213Z,6.55
2023-02-27T05:51:43.054Z,6.60
2023-02-27T05:54:36.649Z,6.62
2023-02-27T05:57:08.791Z,6.63
2023-02-27T06:00:06.501Z,6.70
2023-02-27T06:02:39.778Z,6.78
2023-02-27T06:05:08.987Z,6.77
2023-02-27T06:07:36.598Z,6.71
2023-02-27T06:10:06.158Z,6.57
2023-02-27T06:12:32.953Z,6.57
2023-02-27T06:14:59.697Z,6.69
2023-02-27T06:17:26.458Z,6.62
2023-02-27T06:19:53.133Z,6.52
2023-02-27T06:22:19.915Z,6.51
2023-02-27T06:24:46.714Z,6.54
2023-02-27T06:27:13.498Z,6.54
2023-02-27T06:29:40.480Z,6.59
2023-02-27T06:32:07.260Z,6.79
2023-02-27T06:34:34.188Z,6.80
2023-02-27T06:37:03.908Z,6.77
2023-02-27T06:39:31.215Z,6.81
2023-02-27T06:41:57.986Z,6.84
2023-02-27T06:44:24.872Z,6.70
2023-02-27T06:46:51.619Z,6.59
2023-02-27T06:49:19.106Z,6.65
2023-02-27T06:51:46.054Z,6.72
2023-02-27T06:54:13.061Z,6.82
2023-02-27T06:56:39.818Z,6.92
2023-02-27T06:59:06.868Z,6.98
2023-02-27T07:01:33.709Z,6.98
2023-02-27T07:04:01.230Z,6.95
2023-02-27T07:07:31.144Z,6.97
2023-02-27T07:09:14.811Z,7.02
2023-02-27T07:11:41.508Z,6.97
2023-02-27T07:14:08.335Z,7.03
2023-02-27T07:16:35.158Z,7.13
2023-02-27T07:19:01.955Z,7.17
2023-02-27T07:21:28.734Z,7.26
2023-02-27T07:23:55.625Z,7.29
2023-02-27T07:26:22.336Z,7.33
2023-02-27T07:28:49.124Z,7.50
2023-02-27T07:31:15.953Z,7.48
2023-02-27T07:33:42.708Z,7.45
2023-02-27T07:36:09.566Z,7.57
2023-02-27T07:38:36.295Z,7.59
2023-02-27T07:41:03.020Z,7.71
2023-02-27T07:43:29.803Z,7.76
2023-02-27T07:45:57.233Z,7.89
2023-02-27T07:48:24.343Z,7.96
2023-02-27T07:50:51.042Z,7.92
2023-02-27T07:53:20.309Z,7.93
2023-02-27T07:55:47.316Z,8.00
2023-02-27T07:58:14.109Z,8.03
2023-02-27T08:00:40.835Z,8.01
2023-02-27T08:03:07.661Z,8.03
2023-02-27T08:05:34.510Z,7.91
2023-02-27T08:08:01.798Z,7.89
2023-02-27T08:10:28.572Z,7.94
2023-02-27T08:12:55.422Z,7.91
2023-02-27T08:15:22.276Z,8.00
2023-02-27T08:17:49.137Z,8.07
2023-02-27T08:20:16.372Z,8.14
2023-02-27T08:22:43.401Z,8.21
2023-02-27T08:25:11.302Z,8.27
2023-02-27T08:27:38.921Z,8.33
2023-02-27T08:30:07.862Z,8.37
2023-02-27T08:32:34.927Z,8.41
2023-02-27T08:35:02.261Z,8.45
2023-02-27T08:37:29.565Z,8.51
2023-02-27T08:39:56.258Z,8.62
2023-02-27T08:42:23.529Z,8.85
2023-02-27T08:44:51.181Z,9.04
2023-02-27T08:47:18.889Z,9.10
2023-02-27T08:49:45.607Z,9.20
2023-02-27T08:52:12.395Z,9.18
2023-02-27T08:54:39.112Z,9.16
2023-02-27T08:57:06.158Z,9.27
2023-02-27T08:59:33.039Z,9.32
2023-02-27T09:02:00.779Z,9.31
2023-02-27T09:04:27.632Z,9.33
2023-02-27T09:06:54.558Z,9.29
2023-02-27T09:09:23.701Z,9.32
2023-02-27T09:11:51.772Z,9.30
2023-02-27T09:14:18.999Z,9.33
2023-02-27T09:16:46.401Z,9.39
2023-02-27T09:19:14.527Z,9.45
2023-02-27T09:21:42.624Z,9.55
2023-02-27T09:24:19.255Z,9.78
2023-02-27T09:26:48.031Z,9.96
2023-02-27T09:29:15.126Z,9.98
2023-02-27T09:31:42.272Z,9.92
2023-02-27T09:34:09.252Z,9.93
2023-02-27T09:36:36.025Z,9.91
2023-02-27T09:39:02.980Z,9.93
2023-02-27T09:41:48.705Z,9.96
2023-02-27T09:44:46.167Z,10.06
2023-02-27T09:47:25.520Z,9.98
2023-02-27T09:50:03.399Z,9.99
2023-02-27T09:52:32.737Z,10.15
2023-02-27T09:54:59.719Z,10.25
2023-02-27T09:57:47.012Z,10.45
2023-02-27T10:00:25.629Z,10.58
2023-02-27T10:03:11.669Z,10.52
2023-02-27T10:05:41.241Z,10.67
2023-02-27T10:08:43.208Z,10.78
2023-02-27T10:11:15.337Z,10.87
2023-02-27T10:13:53.882Z,10.86
2023-02-27T10:16:22.571Z,10.87
2023-02-27T10:19:02.521Z,10.90
2023-02-27T10:21:43.530Z,10.78
2023-02-27T10:24:34.009Z,10.82
2023-02-27T10:27:05.738Z,10.94
2023-02-27T10:29:39.822Z,10.98
2023-02-27T10:32:19.335Z,10.98
2023-02-27T10:34:54.979Z,11.02
2023-02-27T10:37:25.861Z,11.32
2023-02-27T10:39:59.866Z,11.42
2023-02-27T10:42:32.202Z,11.31
2023-02-27T10:44:59.265Z,11.21
2023-02-27T10:47:26.563Z,11.09
2023-02-27T10:49:54.972Z,11.05
2023-02-27T10:52:22.414Z,11.08
2023-02-27T10:54:49.359Z,11.07
2023-02-27T10:57:21.569Z,11.00
2023-02-27T10:59:54.932Z,11.20
2023-02-27T11:02:25.848Z,11.38
2023-02-27T11:04:58.794Z,11.36
2023-02-27T11:07:32.691Z,11.33
2023-02-27T11:10:14.656Z,11.35
2023-02-27T11:12:56.254Z,11.24
2023-02-27T11:15:32.278Z,11.17
2023-02-27T11:18:29.346Z,11.07
2023-02-27T11:21:14.816Z,10.94
2023-02-27T11:24:07.824Z,10.90
2023-02-27T11:26:40.733Z,10.88
2023-02-27T11:29:14.172Z,10.87
2023-02-27T11:31:51.683Z,10.85
2023-02-27T11:34:20.785Z,10.79
2023-02-27T11:36:49.748Z,10.79
2023-02-27T11:39:51.308Z,10.74
2023-02-27T11:42:30.885Z,10.88
2023-02-27T11:45:05.295Z,10.86
2023-02-27T11:47:38.737Z,10.81
2023-02-27T11:50:05.587Z,10.83
2023-02-27T11:52:41.668Z,10.93
2023-02-27T11:55:17.983Z,10.93
2023-02-27T11:57:50.382Z,10.88
2023-02-27T12:00:30.964Z,10.94
2023-02-27T12:03:06.679Z,10.91
2023-02-27T12:05:40.765Z,10.89
2023-02-27T12:08:14.626Z,10.90
2023-02-27T12:11:12.420Z,10.94
2023-02-27T12:13:43.079Z,11.02
2023-02-27T12:16:15.801Z,11.09
2023-02-27T12:18:57.906Z,11.06
2023-02-27T12:21:28.858Z,11.07
2023-02-27T12:24:02.785Z,11.06
2023-02-27T12:26:40.029Z,11.14
2023-02-27T12:29:17.754Z,11.09
2023-02-27T12:31:54.340Z,11.17
2023-02-27T12:34:28.662Z,11.26
2023-02-27T12:37:03.331Z,11.25
2023-02-27T12:39:32.215Z,11.40
2023-02-27T12:42:17.001Z,11.48
2023-02-27T12:44:55.928Z,11.53
2023-02-27T12:48:00.169Z,11.61
2023-02-27T12:50:50.706Z,11.75
2023-02-27T12:53:46.248Z,11.62
2023-02-27T12:56:19.996Z,11.63
2023-02-27T12:59:30.183Z,11.68
2023-02-27T13:02:18.934Z,11.65
2023-02-27T13:04:48.870Z,11.59
2023-02-27T13:07:26.900Z,11.62
2023-02-27T13:10:02.471Z,11.58
2023-02-27T13:12:36.857Z,11.63
2023-02-27T13:15:11.303Z,11.57
2023-02-27T13:18:15.394Z,11.49
2023-02-27T13:20:53.953Z,11.43
2023-02-27T13:23:48.831Z,11.34
2023-02-27T13:26:24.774Z,11.26
2023-02-27T13:28:53.983Z,11.11
2023-02-27T13:31:42.536Z,11.07
2023-02-27T13:34:37.075Z,11.01
2023-02-27T13:37:11.716Z,10.96
2023-02-27T13:39:45.739Z,10.96
2023-02-27T13:42:27.834Z,10.96
2023-02-27T13:44:56.612Z,10.88
2023-02-27T13:47:29.576Z,10.88
2023-02-27T13:50:04.339Z,10.89
2023-02-27T13:52:34.051Z,10.89
2023-02-27T13:55:11.361Z,10.87
2023-02-27T13:57:39.333Z,10.93
2023-02-27T14:00:19.296Z,10.91
2023-02-27T14:03:00.534Z,10.93
2023-02-27T14:05:35.121Z,10.92
2023-02-27T14:08:08.261Z,10.99
2023-02-27T14:10:38.740Z,11.03
2023-02-27T14:13:27.053Z,11.03
2023-02-27T14:15:57.417Z,10.98
2023-02-27T14:18:50.423Z,10.93
2023-02-27T14:21:51.312Z,10.95
2023-02-27T14:24:44.826Z,11.05
2023-02-27T14:27:22.741Z,10.98
2023-02-27T14:29:52.479Z,10.93
2023-02-27T14:32:26.084Z,10.93
2023-02-27T14:34:55.986Z,10.98
2023-02-27T14:37:26.714Z,10.93
2023-02-27T14:39:55.928Z,10.90
2023-02-27T14:42:45.181Z,10.84
2023-02-27T14:45:24.319Z,10.88
2023-02-27T14:47:53.295Z,10.85
2023-02-27T14:50:28.084Z,10.88
2023-02-27T14:52:55.702Z,10.84
2023-02-27T14:55:32.642Z,10.82
2023-02-27T14:58:17.899Z,10.84
2023-02-27T15:00:51.009Z,10.84
2023-02-27T15:03:17.996Z,10.85
2023-02-27T15:05:46.276Z,10.74
2023-02-27T15:08:20.605Z,10.78
2023-02-27T15:10:47.879Z,10.76
2023-02-27T15:13:23.841Z,10.73
2023-02-27T15:15:53.786Z,10.71
2023-02-27T15:18:24.491Z,10.67
2023-02-27T15:20:58.912Z,10.73
2023-02-27T15:23:28.624Z,10.73
2023-02-27T15:25:58.324Z,10.78
2023-02-27T15:28:30.830Z,10.78
2023-02-27T15:30:58.015Z,10.77
2023-02-27T15:33:29.240Z,10.74
2023-02-27T15:35:56.996Z,10.83
2023-02-27T15:38:31.159Z,10.84
2023-02-27T15:40:59.854Z,10.84
2023-02-27T15:43:28.479Z,10.79
2023-02-27T15:45:56.347Z,10.84
2023-02-27T15:48:23.615Z,10.87
2023-02-27T15:50:58.175Z,10.84
2023-02-27T15:53:30.801Z,10.88
2023-02-27T15:56:00.884Z,10.87
2023-02-27T15:58:28.991Z,10.82
2023-02-27T16:01:00.915Z,10.76
2023-02-27T16:03:40.404Z,10.75
2023-02-27T16:06:32.615Z,10.74
2023-02-27T16:09:01.728Z,10.72
2023-02-27T16:11:33.086Z,10.74
2023-02-27T16:14:00.381Z,10.74
2023-02-27T16:16:38.855Z,10.72
2023-02-27T16:19:22.768Z,10.71
2023-02-27T16:22:16.587Z,10.72
2023-02-27T16:24:44.395Z,10.68
2023-02-27T16:27:22.482Z,10.63
2023-02-27T16:29:49.866Z,10.57
2023-02-27T16:32:28.408Z,10.56
2023-02-27T16:35:28.554Z,10.47
2023-02-27T16:38:01.644Z,10.44
2023-02-27T16:40:29.891Z,10.39
2023-02-27T16:42:57.356Z,10.29
2023-02-27T16:45:26.957Z,10.21
2023-02-27T16:47:57.087Z,10.17
2023-02-27T16:50:29.965Z,10.15
2023-02-27T16:52:57.588Z,10.03
2023-02-27T16:55:25.969Z,9.98
2023-02-27T16:57:52.910Z,9.83
2023-02-27T17:00:21.419Z,9.74
2023-02-27T17:02:48.814Z,9.68
2023-02-27T17:05:15.958Z,9.73
2023-02-27T17:07:43.373Z,9.74
2023-02-27T17:10:16.973Z,9.75
2023-02-27T17:12:44.260Z,9.56
2023-02-27T17:15:11.425Z,9.45
2023-02-27T17:17:38.327Z,9.33
2023-02-27T17:20:08.727Z,9.35
2023-02-27T17:22:37.134Z,9.39
2023-02-27T17:25:04.493Z,9.41
2023-02-27T17:27:32.121Z,9.35
2023-02-27T17:29:59.329Z,9.27
2023-02-27T17:32:26.356Z,9.27
2023-02-27T17:34:55.192Z,9.19
2023-02-27T17:37:23.255Z,9.15
2023-02-27T17:39:50.620Z,9.12
2023-02-27T17:42:20.693Z,9.14
2023-02-27T17:44:47.864Z,9.07
2023-02-27T17:47:15.815Z,8.89
2023-02-27T17:49:43.507Z,8.80
2023-02-27T17:52:10.727Z,8.72
2023-02-27T17:54:37.965Z,8.51
2023-02-27T17:57:06.963Z,8.50
2023-02-27T17:59:34.257Z,8.48
2023-02-27T18:02:01.129Z,8.53
2023-02-27T18:04:28.741Z,8.51
2023-02-27T18:06:55.609Z,8.44
2023-02-27T18:09:23.198Z,8.35
2023-02-27T18:11:50.405Z,8.31
2023-02-27T18:14:17.649Z,8.36
2023-02-27T18:16:45.185Z,8.43
2023-02-27T18:19:12.547Z,8.52
2023-02-27T18:21:39.728Z,8.53
2023-02-27T18:24:07.393Z,8.54
2023-02-27T18:26:34.921Z,8.53
2023-02-27T18:29:11.173Z,8.43
2023-02-27T18:31:44.327Z,8.40
2023-02-27T18:34:12.396Z,8.48
2023-02-27T18:36:41.880Z,8.41
2023-02-27T18:39:09.326Z,8.37
2023-02-27T18:41:37.045Z,8.40
2023-02-27T18:44:05.267Z,8.44
2023-02-27T18:46:32.995Z,8.48
2023-02-27T18:49:01.219Z,8.43
2023-02-27T18:51:28.111Z,8.41
2023-02-27T18:53:55.100Z,8.47
2023-02-27T18:56:25.702Z,8.41
2023-02-27T18:58:54.052Z,8.51
2023-02-27T19:01:32.300Z,8.54
2023-02-27T19:04:03.809Z,8.51
2023-02-27T19:06:36.714Z,8.45
2023-02-27T19:09:08.405Z,8.42
2023-02-27T19:11:35.905Z,8.45
2023-02-27T19:14:04.830Z,8.45
2023-02-27T19:16:32.361Z,8.52
2023-02-27T19:19:00.676Z,8.55
2023-02-27T19:21:28.867Z,8.57
2023-02-27T19:23:55.933Z,8.53
2023-02-27T19:26:24.494Z,8.52
2023-02-27T19:28:55.371Z,8.44
2023-02-27T19:31:24.290Z,8.37
2023-02-27T19:33:51.667Z,8.18
2023-02-27T19:36:21.135Z,8.14
2023-02-27T19:38:48.768Z,8.20
2023-02-27T19:41:19.459Z,8.22
2023-02-27T19:43:48.074Z,8.27
2023-02-27T19:46:18.603Z,8.33
2023-02-27T19:48:45.724Z,8.31
2023-02-27T19:51:14.586Z,8.31
2023-02-27T19:53:45.610Z,8.34
2023-02-27T19:56:18.784Z,8.28
2023-02-27T19:58:47.986Z,8.21
2023-02-27T20:01:27.062Z,8.18
2023-02-27T20:03:56.239Z,8.19
2023-02-27T20:06:26.113Z,8.18
2023-02-27T20:08:54.250Z,8.11
2023-02-27T20:11:22.101Z,7.92
2023-02-27T20:13:50.902Z,7.86
2023-02-27T20:16:25.808Z,7.92
2023-02-27T20:18:53.302Z,7.93
2023-02-27T20:21:22.581Z,7.81
2023-02-27T20:23:51.781Z,7.79
2023-02-27T20:26:26.713Z,7.75
2023-02-27T20:28:56.836Z,7.74
2023-02-27T20:31:27.640Z,7.79
2023-02-27T20:33:55.399Z,7.84
2023-02-27T20:36:23.167Z,7.69
2023-02-27T20:38:50.379Z,7.47
2023-02-27T20:41:20.216Z,7.21
2023-02-27T20:43:47.731Z,7.10
2023-02-27T20:46:17.947Z,7.06
2023-02-27T20:48:45.490Z,7.04
2023-02-27T20:51:16.100Z,7.10
2023-02-27T20:53:48.380Z,7.23
2023-02-27T20:56:18.513Z,7.40
2023-02-27T20:58:52.631Z,7.33
2023-02-27T21:01:20.441Z,7.39
2023-02-27T21:03:50.503Z,7.46
2023-02-27T21:06:20.044Z,7.52
2023-02-27T21:08:51.832Z,7.66
2023-02-27T21:11:29.771Z,7.73
2023-02-27T21:14:05.005Z,7.79
2023-02-27T21:16:33.491Z,7.87
2023-02-27T21:19:02.192Z,7.87
2023-02-27T21:21:32.716Z,7.90
2023-02-27T21:24:01.504Z,7.85
2023-02-27T21:26:39.359Z,7.90
2023-02-27T21:29:11.195Z,7.94
2023-02-27T21:31:39.958Z,8.01
2023-02-27T21:34:12.512Z,8.05
2023-02-27T21:36:43.522Z,8.07
2023-02-27T21:39:16.918Z,8.10
2023-02-27T21:41:45.627Z,8.05
2023-02-27T21:44:15.988Z,8.07
2023-02-27T21:46:43.341Z,8.05
2023-02-27T21:49:16.855Z,8.01
2023-02-27T21:51:44.817Z,7.94
2023-02-27T21:54:13.666Z,7.92
2023-02-27T21:56:43.491Z,7.89
2023-02-27T21:59:12.157Z,7.84
2023-02-27T22:01:39.796Z,7.88
2023-02-27T22:04:07.365Z,7.90
2023-02-27T22:06:35.544Z,7.95
2023-02-27T22:09:05.785Z,7.96
2023-02-27T22:11:35.665Z,7.91
2023-02-27T22:14:05.807Z,7.92
2023-02-27T22:16:32.927Z,7.86
2023-02-27T22:19:04.630Z,7.75
2023-02-27T22:21:32.491Z,7.75
2023-02-27T22:24:00.005Z,7.82
2023-02-27T22:26:29.334Z,7.88
2023-02-27T22:28:57.551Z,7.92
2023-02-27T22:31:27.938Z,7.97
2023-02-27T22:33:56.651Z,7.92
2023-02-27T22:36:26.386Z,7.83
2023-02-27T22:38:53.917Z,7.86
2023-02-27T22:41:24.451Z,7.85
2023-02-27T22:43:51.885Z,7.77
2023-02-27T22:46:28.429Z,7.75
2023-02-27T22:48:57.547Z,7.76
2023-02-27T22:51:27.865Z,7.84
2023-02-27T22:53:56.907Z,7.89
2023-02-27T22:56:24.133Z,7.92
2023-02-27T22:58:51.368Z,7.94
2023-02-27T23:01:21.608Z,7.97
2023-02-27T23:03:50.803Z,8.03
2023-02-27T23:06:22.880Z,8.04
2023-02-27T23:08:50.119Z,8.07
2023-02-27T23:11:18.530Z,8.08
2023-02-27T23:13:46.102Z,8.05
2023-02-27T23:16:17.169Z,8.00
2023-02-27T23:18:48.628Z,7.81
2023-02-27T23:21:17.811Z,7.81
2023-02-27T23:23:45.184Z,7.84
2023-02-27T23:26:13.224Z,7.88
2023-02-27T23:28:40.220Z,7.84
2023-02-27T23:31:08.392Z,7.87
2023-02-27T23:33:35.438Z,7.85
2023-02-27T23:36:03.191Z,7.87
2023-02-27T23:38:30.771Z,7.92
2023-02-27T23:40:58.146Z,7.94
2023-02-27T23:43:43.491Z,7.85
2023-02-27T23:46:13.454Z,7.85
2023-02-27T23:48:41.464Z,7.83
2023-02-27T23:51:15.316Z,7.85
2023-02-27T23:53:42.967Z,7.85
2023-02-27T23:56:14.031Z,7.90
2023-02-27T23:58:41.002Z,7.85
